sensor_id;sensor_type;location;lat;lon;timestamp;P1;durP1;ratioP1;P2;durP2;ratioP2
66175;SDS011;52977;44.816;20.538;2024-03-29T00:01:57;5.90;;;1.15;;
66175;SDS011;52977;44.816;20.538;2024-03-29T00:04:23;2.30;;;0.80;;
66175;SDS011;52977;44.816;20.538;2024-03-29T00:06:50;5.45;;;1.00;;
66175;SDS011;52977;44.816;20.538;2024-03-29T00:09:16;3.05;;;0.80;;
66175;SDS011;52977;44.816;20.538;2024-03-29T00:11:43;5.47;;;1.00;;
66175;SDS011;52977;44.816;20.538;2024-03-29T00:14:09;4.75;;;1.13;;
66175;SDS011;52977;44.816;20.538;2024-03-29T00:16:36;4.40;;;0.98;;
66175;SDS011;52977;44.816;20.538;2024-03-29T00:19:03;4.40;;;1.08;;
66175;SDS011;52977;44.816;20.538;2024-03-29T00:21:29;2.20;;;0.80;;
66175;SDS011;52977;44.816;20.538;2024-03-29T00:23:56;7.53;;;0.90;;
66175;SDS011;52977;44.816;20.538;2024-03-29T00:26:23;5.68;;;1.10;;
66175;SDS011;52977;44.816;20.538;2024-03-29T00:28:49;4.55;;;1.17;;
66175;SDS011;52977;44.816;20.538;2024-03-29T00:31:16;4.47;;;1.00;;
66175;SDS011;52977;44.816;20.538;2024-03-29T00:33:42;4.63;;;1.05;;
66175;SDS011;52977;44.816;20.538;2024-03-29T00:36:09;6.57;;;1.00;;
66175;SDS011;52977;44.816;20.538;2024-03-29T00:38:36;2.65;;;0.90;;
66175;SDS011;52977;44.816;20.538;2024-03-29T00:41:02;2.53;;;0.90;;
66175;SDS011;52977;44.816;20.538;2024-03-29T00:43:29;6.35;;;1.05;;
66175;SDS011;52977;44.816;20.538;2024-03-29T00:45:56;2.58;;;1.00;;
66175;SDS011;52977;44.816;20.538;2024-03-29T00:48:22;3.13;;;0.70;;
66175;SDS011;52977;44.816;20.538;2024-03-29T00:50:49;3.15;;;1.00;;
66175;SDS011;52977;44.816;20.538;2024-03-29T00:53:16;4.22;;;1.20;;
66175;SDS011;52977;44.816;20.538;2024-03-29T00:55:42;4.38;;;1.08;;
66175;SDS011;52977;44.816;20.538;2024-03-29T00:58:09;2.70;;;0.82;;
66175;SDS011;52977;44.816;20.538;2024-03-29T01:00:36;6.70;;;0.77;;
66175;SDS011;52977;44.816;20.538;2024-03-29T01:03:03;4.10;;;1.05;;
66175;SDS011;52977;44.816;20.538;2024-03-29T01:05:29;4.95;;;1.17;;
66175;SDS011;52977;44.816;20.538;2024-03-29T01:07:56;4.63;;;0.90;;
66175;SDS011;52977;44.816;20.538;2024-03-29T01:10:23;3.05;;;0.90;;
66175;SDS011;52977;44.816;20.538;2024-03-29T01:12:49;3.25;;;0.95;;
66175;SDS011;52977;44.816;20.538;2024-03-29T01:15:16;6.28;;;1.10;;
66175;SDS011;52977;44.816;20.538;2024-03-29T01:17:42;4.70;;;1.15;;
66175;SDS011;52977;44.816;20.538;2024-03-29T01:20:09;5.05;;;1.23;;
66175;SDS011;52977;44.816;20.538;2024-03-29T01:22:37;4.43;;;1.00;;
66175;SDS011;52977;44.816;20.538;2024-03-29T01:25:04;6.07;;;0.80;;
66175;SDS011;52977;44.816;20.538;2024-03-29T01:27:34;5.43;;;1.05;;
66175;SDS011;52977;44.816;20.538;2024-03-29T01:30:00;4.15;;;1.00;;
66175;SDS011;52977;44.816;20.538;2024-03-29T01:32:27;2.63;;;0.88;;
66175;SDS011;52977;44.816;20.538;2024-03-29T01:34:53;3.80;;;1.23;;
66175;SDS011;52977;44.816;20.538;2024-03-29T01:37:20;3.90;;;1.00;;
66175;SDS011;52977;44.816;20.538;2024-03-29T01:39:47;7.40;;;1.30;;
66175;SDS011;52977;44.816;20.538;2024-03-29T01:42:13;2.10;;;0.77;;
66175;SDS011;52977;44.816;20.538;2024-03-29T01:44:40;4.07;;;0.88;;
66175;SDS011;52977;44.816;20.538;2024-03-29T01:47:06;5.63;;;1.10;;
66175;SDS011;52977;44.816;20.538;2024-03-29T01:49:33;4.68;;;0.88;;
66175;SDS011;52977;44.816;20.538;2024-03-29T01:52:00;5.07;;;1.20;;
66175;SDS011;52977;44.816;20.538;2024-03-29T01:54:28;3.47;;;0.85;;
66175;SDS011;52977;44.816;20.538;2024-03-29T01:56:55;7.53;;;1.10;;
66175;SDS011;52977;44.816;20.538;2024-03-29T01:59:22;5.43;;;1.10;;
66175;SDS011;52977;44.816;20.538;2024-03-29T02:01:48;4.80;;;1.08;;
66175;SDS011;52977;44.816;20.538;2024-03-29T02:04:15;4.22;;;1.08;;
66175;SDS011;52977;44.816;20.538;2024-03-29T02:06:41;2.53;;;0.90;;
66175;SDS011;52977;44.816;20.538;2024-03-29T02:09:08;4.65;;;1.00;;
66175;SDS011;52977;44.816;20.538;2024-03-29T02:11:34;5.70;;;0.93;;
66175;SDS011;52977;44.816;20.538;2024-03-29T02:14:03;8.40;;;1.17;;
66175;SDS011;52977;44.816;20.538;2024-03-29T02:16:32;4.90;;;1.00;;
66175;SDS011;52977;44.816;20.538;2024-03-29T02:18:58;5.32;;;1.10;;
66175;SDS011;52977;44.816;20.538;2024-03-29T02:21:25;5.85;;;1.85;;
66175;SDS011;52977;44.816;20.538;2024-03-29T02:23:59;3.53;;;1.05;;
66175;SDS011;52977;44.816;20.538;2024-03-29T02:26:28;4.90;;;0.90;;
66175;SDS011;52977;44.816;20.538;2024-03-29T02:28:57;6.38;;;0.98;;
66175;SDS011;52977;44.816;20.538;2024-03-29T02:31:24;2.83;;;0.90;;
66175;SDS011;52977;44.816;20.538;2024-03-29T02:33:51;6.13;;;1.48;;
66175;SDS011;52977;44.816;20.538;2024-03-29T02:36:17;3.58;;;1.23;;
66175;SDS011;52977;44.816;20.538;2024-03-29T02:38:44;7.95;;;1.77;;
66175;SDS011;52977;44.816;20.538;2024-03-29T02:41:10;4.03;;;1.23;;
66175;SDS011;52977;44.816;20.538;2024-03-29T02:43:37;4.40;;;1.45;;
66175;SDS011;52977;44.816;20.538;2024-03-29T02:46:03;4.78;;;1.25;;
66175;SDS011;52977;44.816;20.538;2024-03-29T02:48:30;3.08;;;1.13;;
66175;SDS011;52977;44.816;20.538;2024-03-29T02:50:56;5.05;;;1.20;;
66175;SDS011;52977;44.816;20.538;2024-03-29T02:53:23;7.78;;;1.27;;
66175;SDS011;52977;44.816;20.538;2024-03-29T02:55:49;9.32;;;1.20;;
66175;SDS011;52977;44.816;20.538;2024-03-29T02:58:16;3.88;;;1.00;;
66175;SDS011;52977;44.816;20.538;2024-03-29T03:00:42;3.00;;;1.00;;
66175;SDS011;52977;44.816;20.538;2024-03-29T03:03:09;4.78;;;1.30;;
66175;SDS011;52977;44.816;20.538;2024-03-29T03:05:35;4.05;;;1.10;;
66175;SDS011;52977;44.816;20.538;2024-03-29T03:08:02;3.60;;;0.80;;
66175;SDS011;52977;44.816;20.538;2024-03-29T03:10:47;1.13;;;0.50;;
66175;SDS011;52977;44.816;20.538;2024-03-29T03:13:22;1.92;;;1.23;;
66175;SDS011;52977;44.816;20.538;2024-03-29T03:15:49;1.30;;;0.50;;
66175;SDS011;52977;44.816;20.538;2024-03-29T03:18:15;1.02;;;0.47;;
66175;SDS011;52977;44.816;20.538;2024-03-29T03:20:41;2.45;;;0.40;;
66175;SDS011;52977;44.816;20.538;2024-03-29T03:23:08;0.57;;;0.30;;
66175;SDS011;52977;44.816;20.538;2024-03-29T03:25:34;1.50;;;0.50;;
66175;SDS011;52977;44.816;20.538;2024-03-29T03:28:01;3.70;;;0.82;;
66175;SDS011;52977;44.816;20.538;2024-03-29T03:30:27;1.77;;;0.50;;
66175;SDS011;52977;44.816;20.538;2024-03-29T03:32:54;0.80;;;0.40;;
66175;SDS011;52977;44.816;20.538;2024-03-29T03:35:20;0.65;;;0.30;;
66175;SDS011;52977;44.816;20.538;2024-03-29T03:37:47;0.55;;;0.32;;
66175;SDS011;52977;44.816;20.538;2024-03-29T03:40:13;0.80;;;0.40;;
66175;SDS011;52977;44.816;20.538;2024-03-29T03:42:40;1.95;;;0.40;;
66175;SDS011;52977;44.816;20.538;2024-03-29T03:45:06;0.20;;;0.20;;
66175;SDS011;52977;44.816;20.538;2024-03-29T03:47:33;1.23;;;0.50;;
66175;SDS011;52977;44.816;20.538;2024-03-29T03:49:59;0.57;;;0.30;;
66175;SDS011;52977;44.816;20.538;2024-03-29T03:52:26;0.30;;;0.30;;
66175;SDS011;52977;44.816;20.538;2024-03-29T03:54:52;0.50;;;0.30;;
66175;SDS011;52977;44.816;20.538;2024-03-29T03:57:19;1.30;;;0.40;;
66175;SDS011;52977;44.816;20.538;2024-03-29T03:59:45;1.70;;;0.50;;
66175;SDS011;52977;44.816;20.538;2024-03-29T04:02:11;2.97;;;0.45;;
66175;SDS011;52977;44.816;20.538;2024-03-29T04:04:38;1.13;;;0.40;;
66175;SDS011;52977;44.816;20.538;2024-03-29T04:07:04;1.98;;;0.35;;
66175;SDS011;52977;44.816;20.538;2024-03-29T04:09:31;0.70;;;0.35;;
66175;SDS011;52977;44.816;20.538;2024-03-29T04:11:57;0.77;;;0.30;;
66175;SDS011;52977;44.816;20.538;2024-03-29T04:14:24;0.50;;;0.28;;
66175;SDS011;52977;44.816;20.538;2024-03-29T04:16:50;1.08;;;0.40;;
66175;SDS011;52977;44.816;20.538;2024-03-29T04:19:17;1.33;;;0.40;;
66175;SDS011;52977;44.816;20.538;2024-03-29T04:21:43;0.38;;;0.38;;
66175;SDS011;52977;44.816;20.538;2024-03-29T04:24:10;1.52;;;0.30;;
66175;SDS011;52977;44.816;20.538;2024-03-29T04:26:36;0.63;;;0.28;;
66175;SDS011;52977;44.816;20.538;2024-03-29T04:29:04;0.35;;;0.22;;
66175;SDS011;52977;44.816;20.538;2024-03-29T04:31:31;1.83;;;0.30;;
66175;SDS011;52977;44.816;20.538;2024-03-29T04:33:57;2.58;;;0.40;;
66175;SDS011;52977;44.816;20.538;2024-03-29T04:36:24;0.90;;;0.32;;
66175;SDS011;52977;44.816;20.538;2024-03-29T04:38:50;0.38;;;0.30;;
66175;SDS011;52977;44.816;20.538;2024-03-29T04:41:17;1.65;;;0.50;;
66175;SDS011;52977;44.816;20.538;2024-03-29T04:43:43;1.63;;;0.40;;
66175;SDS011;52977;44.816;20.538;2024-03-29T04:46:11;0.90;;;0.50;;
66175;SDS011;52977;44.816;20.538;2024-03-29T04:48:39;1.13;;;0.50;;
66175;SDS011;52977;44.816;20.538;2024-03-29T04:51:26;2.08;;;0.50;;
66175;SDS011;52977;44.816;20.538;2024-03-29T04:53:52;1.30;;;0.40;;
66175;SDS011;52977;44.816;20.538;2024-03-29T04:56:18;4.55;;;0.40;;
66175;SDS011;52977;44.816;20.538;2024-03-29T04:58:45;1.63;;;0.40;;
66175;SDS011;52977;44.816;20.538;2024-03-29T05:01:12;1.55;;;0.40;;
66175;SDS011;52977;44.816;20.538;2024-03-29T05:03:38;0.82;;;0.43;;
66175;SDS011;52977;44.816;20.538;2024-03-29T05:06:05;1.40;;;0.60;;
66175;SDS011;52977;44.816;20.538;2024-03-29T05:08:31;0.80;;;0.30;;
66175;SDS011;52977;44.816;20.538;2024-03-29T05:10:58;2.55;;;0.60;;
66175;SDS011;52977;44.816;20.538;2024-03-29T05:13:24;1.83;;;0.70;;
66175;SDS011;52977;44.816;20.538;2024-03-29T05:15:51;1.52;;;0.73;;
66175;SDS011;52977;44.816;20.538;2024-03-29T05:18:18;1.02;;;0.50;;
66175;SDS011;52977;44.816;20.538;2024-03-29T05:20:45;2.13;;;0.70;;
66175;SDS011;52977;44.816;20.538;2024-03-29T05:23:15;2.00;;;0.98;;
66175;SDS011;52977;44.816;20.538;2024-03-29T05:25:42;2.88;;;0.90;;
66175;SDS011;52977;44.816;20.538;2024-03-29T05:28:09;3.58;;;1.00;;
66175;SDS011;52977;44.816;20.538;2024-03-29T05:30:36;4.57;;;1.00;;
66175;SDS011;52977;44.816;20.538;2024-03-29T05:33:03;1.85;;;0.70;;
66175;SDS011;52977;44.816;20.538;2024-03-29T05:35:30;2.40;;;0.75;;
66175;SDS011;52977;44.816;20.538;2024-03-29T05:37:57;3.10;;;1.00;;
66175;SDS011;52977;44.816;20.538;2024-03-29T05:40:24;2.55;;;0.60;;
66175;SDS011;52977;44.816;20.538;2024-03-29T05:42:54;4.00;;;0.85;;
66175;SDS011;52977;44.816;20.538;2024-03-29T05:45:24;1.80;;;0.80;;
66175;SDS011;52977;44.816;20.538;2024-03-29T05:47:56;1.27;;;0.65;;
66175;SDS011;52977;44.816;20.538;2024-03-29T05:50:25;2.38;;;0.80;;
66175;SDS011;52977;44.816;20.538;2024-03-29T05:52:52;2.72;;;0.90;;
66175;SDS011;52977;44.816;20.538;2024-03-29T05:55:18;5.05;;;0.93;;
66175;SDS011;52977;44.816;20.538;2024-03-29T05:57:44;1.77;;;0.70;;
66175;SDS011;52977;44.816;20.538;2024-03-29T06:00:11;1.90;;;0.70;;
66175;SDS011;52977;44.816;20.538;2024-03-29T06:02:42;1.85;;;0.60;;
66175;SDS011;52977;44.816;20.538;2024-03-29T06:05:11;3.03;;;0.70;;
66175;SDS011;52977;44.816;20.538;2024-03-29T06:07:37;2.95;;;0.70;;
66175;SDS011;52977;44.816;20.538;2024-03-29T06:10:04;1.40;;;0.75;;
66175;SDS011;52977;44.816;20.538;2024-03-29T06:12:32;1.88;;;0.75;;
66175;SDS011;52977;44.816;20.538;2024-03-29T06:14:59;0.88;;;0.40;;
66175;SDS011;52977;44.816;20.538;2024-03-29T06:17:44;2.92;;;0.68;;
66175;SDS011;52977;44.816;20.538;2024-03-29T06:20:12;1.63;;;0.50;;
66175;SDS011;52977;44.816;20.538;2024-03-29T06:22:38;2.80;;;1.10;;
66175;SDS011;52977;44.816;20.538;2024-03-29T06:25:05;1.08;;;0.50;;
66175;SDS011;52977;44.816;20.538;2024-03-29T06:27:32;1.75;;;0.60;;
66175;SDS011;52977;44.816;20.538;2024-03-29T06:29:59;1.95;;;0.80;;
66175;SDS011;52977;44.816;20.538;2024-03-29T06:32:24;2.95;;;0.60;;
66175;SDS011;52977;44.816;20.538;2024-03-29T06:34:51;2.08;;;0.60;;
66175;SDS011;52977;44.816;20.538;2024-03-29T06:37:18;1.80;;;0.63;;
66175;SDS011;52977;44.816;20.538;2024-03-29T06:39:47;2.67;;;1.00;;
66175;SDS011;52977;44.816;20.538;2024-03-29T06:42:14;1.20;;;0.65;;
66175;SDS011;52977;44.816;20.538;2024-03-29T06:44:39;3.50;;;0.68;;
66175;SDS011;52977;44.816;20.538;2024-03-29T06:47:06;1.85;;;0.52;;
66175;SDS011;52977;44.816;20.538;2024-03-29T06:49:33;1.77;;;0.65;;
66175;SDS011;52977;44.816;20.538;2024-03-29T06:52:00;1.60;;;0.55;;
66175;SDS011;52977;44.816;20.538;2024-03-29T06:54:27;1.52;;;0.60;;
66175;SDS011;52977;44.816;20.538;2024-03-29T06:56:55;3.10;;;1.00;;
66175;SDS011;52977;44.816;20.538;2024-03-29T06:59:23;0.80;;;0.60;;
66175;SDS011;52977;44.816;20.538;2024-03-29T07:01:50;1.73;;;0.47;;
66175;SDS011;52977;44.816;20.538;2024-03-29T07:04:21;1.73;;;0.57;;
66175;SDS011;52977;44.816;20.538;2024-03-29T07:06:49;2.88;;;0.70;;
66175;SDS011;52977;44.816;20.538;2024-03-29T07:09:19;3.13;;;0.55;;
66175;SDS011;52977;44.816;20.538;2024-03-29T07:11:47;5.68;;;0.80;;
66175;SDS011;52977;44.816;20.538;2024-03-29T07:14:15;2.72;;;0.65;;
66175;SDS011;52977;44.816;20.538;2024-03-29T07:16:42;3.58;;;1.05;;
66175;SDS011;52977;44.816;20.538;2024-03-29T07:19:10;2.40;;;0.77;;
66175;SDS011;52977;44.816;20.538;2024-03-29T07:21:45;2.30;;;0.77;;
66175;SDS011;52977;44.816;20.538;2024-03-29T07:24:12;3.95;;;1.50;;
66175;SDS011;52977;44.816;20.538;2024-03-29T07:26:39;1.95;;;0.68;;
66175;SDS011;52977;44.816;20.538;2024-03-29T07:29:06;4.00;;;0.90;;
66175;SDS011;52977;44.816;20.538;2024-03-29T07:31:33;3.25;;;1.00;;
66175;SDS011;52977;44.816;20.538;2024-03-29T07:34:00;2.45;;;0.70;;
66175;SDS011;52977;44.816;20.538;2024-03-29T07:36:26;2.55;;;0.90;;
66175;SDS011;52977;44.816;20.538;2024-03-29T07:38:59;3.70;;;0.90;;
66175;SDS011;52977;44.816;20.538;2024-03-29T07:41:25;2.53;;;0.80;;
66175;SDS011;52977;44.816;20.538;2024-03-29T07:43:55;8.85;;;1.20;;
66175;SDS011;52977;44.816;20.538;2024-03-29T07:46:27;4.47;;;1.40;;
66175;SDS011;52977;44.816;20.538;2024-03-29T07:48:55;5.07;;;1.35;;
66175;SDS011;52977;44.816;20.538;2024-03-29T07:51:22;3.03;;;1.33;;
66175;SDS011;52977;44.816;20.538;2024-03-29T07:53:48;2.97;;;1.40;;
66175;SDS011;52977;44.816;20.538;2024-03-29T07:56:14;8.65;;;1.52;;
66175;SDS011;52977;44.816;20.538;2024-03-29T07:58:40;5.55;;;1.20;;
66175;SDS011;52977;44.816;20.538;2024-03-29T08:01:06;4.65;;;1.67;;
66175;SDS011;52977;44.816;20.538;2024-03-29T08:03:33;4.10;;;1.90;;
66175;SDS011;52977;44.816;20.538;2024-03-29T08:06:00;4.13;;;1.40;;
66175;SDS011;52977;44.816;20.538;2024-03-29T08:08:30;4.13;;;1.80;;
66175;SDS011;52977;44.816;20.538;2024-03-29T08:10:57;3.95;;;1.88;;
66175;SDS011;52977;44.816;20.538;2024-03-29T08:13:25;4.68;;;1.70;;
66175;SDS011;52977;44.816;20.538;2024-03-29T08:16:01;5.15;;;1.60;;
66175;SDS011;52977;44.816;20.538;2024-03-29T08:18:29;6.30;;;1.35;;
66175;SDS011;52977;44.816;20.538;2024-03-29T08:20:56;4.68;;;1.30;;
66175;SDS011;52977;44.816;20.538;2024-03-29T08:23:24;3.85;;;1.27;;
66175;SDS011;52977;44.816;20.538;2024-03-29T08:25:53;4.63;;;1.25;;
66175;SDS011;52977;44.816;20.538;2024-03-29T08:28:22;6.53;;;1.48;;
66175;SDS011;52977;44.816;20.538;2024-03-29T08:30:58;2.83;;;1.23;;
66175;SDS011;52977;44.816;20.538;2024-03-29T08:33:25;5.57;;;1.23;;
66175;SDS011;52977;44.816;20.538;2024-03-29T08:35:51;4.55;;;1.10;;
66175;SDS011;52977;44.816;20.538;2024-03-29T08:38:18;3.17;;;1.10;;
66175;SDS011;52977;44.816;20.538;2024-03-29T08:40:44;2.78;;;1.42;;
66175;SDS011;52977;44.816;20.538;2024-03-29T08:43:14;5.05;;;1.13;;
66175;SDS011;52977;44.816;20.538;2024-03-29T08:45:42;3.95;;;1.25;;
66175;SDS011;52977;44.816;20.538;2024-03-29T08:48:08;4.93;;;1.40;;
66175;SDS011;52977;44.816;20.538;2024-03-29T08:50:35;7.90;;;2.53;;
66175;SDS011;52977;44.816;20.538;2024-03-29T08:53:03;4.55;;;1.88;;
66175;SDS011;52977;44.816;20.538;2024-03-29T08:55:31;4.03;;;1.75;;
66175;SDS011;52977;44.816;20.538;2024-03-29T08:57:58;5.03;;;2.17;;
66175;SDS011;52977;44.816;20.538;2024-03-29T09:00:26;5.45;;;1.42;;
66175;SDS011;52977;44.816;20.538;2024-03-29T09:02:53;3.95;;;1.13;;
66175;SDS011;52977;44.816;20.538;2024-03-29T09:05:20;3.45;;;1.23;;
66175;SDS011;52977;44.816;20.538;2024-03-29T09:07:48;7.15;;;1.42;;
66175;SDS011;52977;44.816;20.538;2024-03-29T09:10:15;8.18;;;1.80;;
66175;SDS011;52977;44.816;20.538;2024-03-29T09:12:41;6.80;;;2.10;;
66175;SDS011;52977;44.816;20.538;2024-03-29T09:15:07;5.07;;;2.10;;
66175;SDS011;52977;44.816;20.538;2024-03-29T09:17:39;6.00;;;1.90;;
66175;SDS011;52977;44.816;20.538;2024-03-29T09:20:06;6.82;;;2.20;;
66175;SDS011;52977;44.816;20.538;2024-03-29T09:22:34;4.95;;;1.52;;
66175;SDS011;52977;44.816;20.538;2024-03-29T09:25:00;6.05;;;2.40;;
66175;SDS011;52977;44.816;20.538;2024-03-29T09:27:27;6.93;;;2.00;;
66175;SDS011;52977;44.816;20.538;2024-03-29T09:29:57;4.93;;;1.80;;
66175;SDS011;52977;44.816;20.538;2024-03-29T09:32:23;4.70;;;1.63;;
66175;SDS011;52977;44.816;20.538;2024-03-29T09:34:50;3.13;;;1.20;;
66175;SDS011;52977;44.816;20.538;2024-03-29T09:37:17;2.90;;;1.27;;
66175;SDS011;52977;44.816;20.538;2024-03-29T09:39:46;9.13;;;2.60;;
66175;SDS011;52977;44.816;20.538;2024-03-29T09:42:15;4.40;;;1.60;;
66175;SDS011;52977;44.816;20.538;2024-03-29T09:44:43;5.38;;;1.65;;
66175;SDS011;52977;44.816;20.538;2024-03-29T09:47:14;6.57;;;1.70;;
66175;SDS011;52977;44.816;20.538;2024-03-29T09:49:43;5.20;;;1.50;;
66175;SDS011;52977;44.816;20.538;2024-03-29T09:52:12;2.97;;;1.08;;
66175;SDS011;52977;44.816;20.538;2024-03-29T09:54:39;8.32;;;1.30;;
66175;SDS011;52977;44.816;20.538;2024-03-29T09:57:05;6.50;;;2.45;;
66175;SDS011;52977;44.816;20.538;2024-03-29T09:59:32;13.57;;;4.82;;
66175;SDS011;52977;44.816;20.538;2024-03-29T10:02:00;14.07;;;4.25;;
66175;SDS011;52977;44.816;20.538;2024-03-29T10:04:31;5.00;;;1.90;;
66175;SDS011;52977;44.816;20.538;2024-03-29T10:06:58;7.70;;;2.47;;
66175;SDS011;52977;44.816;20.538;2024-03-29T10:09:24;10.02;;;2.22;;
66175;SDS011;52977;44.816;20.538;2024-03-29T10:14:21;7.80;;;1.35;;
66175;SDS011;52977;44.816;20.538;2024-03-29T10:16:53;6.97;;;1.70;;
66175;SDS011;52977;44.816;20.538;2024-03-29T10:19:20;11.73;;;2.38;;
66175;SDS011;52977;44.816;20.538;2024-03-29T10:21:48;10.35;;;2.90;;
66175;SDS011;52977;44.816;20.538;2024-03-29T10:24:15;7.85;;;1.90;;
66175;SDS011;52977;44.816;20.538;2024-03-29T10:26:46;5.90;;;1.67;;
66175;SDS011;52977;44.816;20.538;2024-03-29T10:29:13;5.40;;;1.52;;
66175;SDS011;52977;44.816;20.538;2024-03-29T10:31:40;4.25;;;1.20;;
66175;SDS011;52977;44.816;20.538;2024-03-29T10:34:06;6.13;;;1.70;;
66175;SDS011;52977;44.816;20.538;2024-03-29T10:36:34;5.07;;;1.17;;
66175;SDS011;52977;44.816;20.538;2024-03-29T10:39:02;5.28;;;1.50;;
66175;SDS011;52977;44.816;20.538;2024-03-29T10:41:40;6.07;;;1.33;;
66175;SDS011;52977;44.816;20.538;2024-03-29T10:44:10;5.60;;;1.25;;
66175;SDS011;52977;44.816;20.538;2024-03-29T10:46:39;6.07;;;1.20;;
66175;SDS011;52977;44.816;20.538;2024-03-29T10:49:07;7.22;;;1.83;;
66175;SDS011;52977;44.816;20.538;2024-03-29T10:51:38;10.32;;;2.22;;
66175;SDS011;52977;44.816;20.538;2024-03-29T10:54:06;11.02;;;3.50;;
66175;SDS011;52977;44.816;20.538;2024-03-29T10:56:35;8.07;;;1.63;;
66175;SDS011;52977;44.816;20.538;2024-03-29T10:59:06;4.63;;;1.42;;
66175;SDS011;52977;44.816;20.538;2024-03-29T11:01:59;8.70;;;1.48;;
66175;SDS011;52977;44.816;20.538;2024-03-29T11:04:29;3.45;;;1.30;;
66175;SDS011;52977;44.816;20.538;2024-03-29T11:07:00;6.95;;;1.40;;
66175;SDS011;52977;44.816;20.538;2024-03-29T11:09:30;7.38;;;1.63;;
66175;SDS011;52977;44.816;20.538;2024-03-29T11:11:59;8.60;;;1.60;;
66175;SDS011;52977;44.816;20.538;2024-03-29T11:14:39;7.32;;;1.30;;
66175;SDS011;52977;44.816;20.538;2024-03-29T11:17:12;9.13;;;1.58;;
66175;SDS011;52977;44.816;20.538;2024-03-29T11:19:40;4.32;;;1.10;;
66175;SDS011;52977;44.816;20.538;2024-03-29T11:22:07;7.78;;;1.67;;
66175;SDS011;52977;44.816;20.538;2024-03-29T11:24:34;6.95;;;1.52;;
66175;SDS011;52977;44.816;20.538;2024-03-29T11:27:08;6.45;;;1.20;;
66175;SDS011;52977;44.816;20.538;2024-03-29T11:29:37;9.35;;;1.20;;
66175;SDS011;52977;44.816;20.538;2024-03-29T11:32:09;5.00;;;1.30;;
66175;SDS011;52977;44.816;20.538;2024-03-29T11:34:43;5.60;;;1.13;;
66175;SDS011;52977;44.816;20.538;2024-03-29T11:37:11;8.43;;;1.55;;
66175;SDS011;52977;44.816;20.538;2024-03-29T11:40:00;5.38;;;1.50;;
66175;SDS011;52977;44.816;20.538;2024-03-29T11:42:37;7.65;;;1.52;;
66175;SDS011;52977;44.816;20.538;2024-03-29T11:45:04;5.03;;;1.42;;
66175;SDS011;52977;44.816;20.538;2024-03-29T11:47:33;6.10;;;1.60;;
66175;SDS011;52977;44.816;20.538;2024-03-29T11:50:01;6.05;;;1.42;;
66175;SDS011;52977;44.816;20.538;2024-03-29T11:52:27;5.82;;;1.45;;
66175;SDS011;52977;44.816;20.538;2024-03-29T11:54:54;8.05;;;1.58;;
66175;SDS011;52977;44.816;20.538;2024-03-29T11:57:19;10.15;;;3.45;;
66175;SDS011;52977;44.816;20.538;2024-03-29T11:59:45;16.38;;;6.97;;
66175;SDS011;52977;44.816;20.538;2024-03-29T12:02:13;18.98;;;7.30;;
66175;SDS011;52977;44.816;20.538;2024-03-29T12:04:41;17.80;;;7.30;;
66175;SDS011;52977;44.816;20.538;2024-03-29T12:07:08;10.15;;;2.55;;
66175;SDS011;52977;44.816;20.538;2024-03-29T12:09:35;7.45;;;2.50;;
66175;SDS011;52977;44.816;20.538;2024-03-29T12:12:05;8.40;;;2.60;;
66175;SDS011;52977;44.816;20.538;2024-03-29T12:14:35;10.30;;;3.45;;
66175;SDS011;52977;44.816;20.538;2024-03-29T12:17:11;6.30;;;1.40;;
66175;SDS011;52977;44.816;20.538;2024-03-29T12:19:38;6.20;;;1.20;;
66175;SDS011;52977;44.816;20.538;2024-03-29T12:22:07;7.68;;;1.08;;
66175;SDS011;52977;44.816;20.538;2024-03-29T12:24:35;5.45;;;1.17;;
66175;SDS011;52977;44.816;20.538;2024-03-29T12:27:01;4.68;;;1.00;;
66175;SDS011;52977;44.816;20.538;2024-03-29T12:29:28;8.18;;;1.35;;
66175;SDS011;52977;44.816;20.538;2024-03-29T12:32:00;6.63;;;1.67;;
66175;SDS011;52977;44.816;20.538;2024-03-29T12:34:28;5.25;;;1.30;;
66175;SDS011;52977;44.816;20.538;2024-03-29T12:36:57;4.53;;;1.10;;
66175;SDS011;52977;44.816;20.538;2024-03-29T12:39:25;6.80;;;2.20;;
66175;SDS011;52977;44.816;20.538;2024-03-29T12:41:53;6.68;;;1.50;;
66175;SDS011;52977;44.816;20.538;2024-03-29T12:44:22;5.20;;;1.02;;
66175;SDS011;52977;44.816;20.538;2024-03-29T12:46:49;6.35;;;1.30;;
66175;SDS011;52977;44.816;20.538;2024-03-29T12:49:15;6.35;;;1.00;;
66175;SDS011;52977;44.816;20.538;2024-03-29T12:51:43;3.75;;;0.93;;
66175;SDS011;52977;44.816;20.538;2024-03-29T12:54:10;6.13;;;1.08;;
66175;SDS011;52977;44.816;20.538;2024-03-29T12:56:37;5.03;;;2.30;;
66175;SDS011;52977;44.816;20.538;2024-03-29T12:59:06;9.73;;;1.25;;
66175;SDS011;52977;44.816;20.538;2024-03-29T13:01:32;5.50;;;1.35;;
66175;SDS011;52977;44.816;20.538;2024-03-29T13:03:58;5.35;;;1.60;;
66175;SDS011;52977;44.816;20.538;2024-03-29T13:06:25;10.40;;;2.97;;
66175;SDS011;52977;44.816;20.538;2024-03-29T13:08:52;7.07;;;1.60;;
66175;SDS011;52977;44.816;20.538;2024-03-29T13:11:19;8.77;;;1.20;;
66175;SDS011;52977;44.816;20.538;2024-03-29T13:13:46;6.07;;;1.20;;
66175;SDS011;52977;44.816;20.538;2024-03-29T13:16:12;7.22;;;2.03;;
66175;SDS011;52977;44.816;20.538;2024-03-29T13:18:40;11.18;;;1.55;;
66175;SDS011;52977;44.816;20.538;2024-03-29T13:21:06;7.03;;;1.75;;
66175;SDS011;52977;44.816;20.538;2024-03-29T13:23:33;5.07;;;1.90;;
66175;SDS011;52977;44.816;20.538;2024-03-29T13:26:00;7.50;;;1.60;;
66175;SDS011;52977;44.816;20.538;2024-03-29T13:28:27;3.60;;;1.23;;
66175;SDS011;52977;44.816;20.538;2024-03-29T13:30:53;5.10;;;1.40;;
66175;SDS011;52977;44.816;20.538;2024-03-29T13:33:21;6.75;;;1.90;;
66175;SDS011;52977;44.816;20.538;2024-03-29T13:35:52;11.65;;;4.03;;
66175;SDS011;52977;44.816;20.538;2024-03-29T13:38:20;7.63;;;2.60;;
66175;SDS011;52977;44.816;20.538;2024-03-29T13:40:49;4.88;;;1.30;;
66175;SDS011;52977;44.816;20.538;2024-03-29T13:43:16;4.88;;;1.13;;
66175;SDS011;52977;44.816;20.538;2024-03-29T13:45:42;4.30;;;1.40;;
66175;SDS011;52977;44.816;20.538;2024-03-29T13:48:09;5.97;;;1.00;;
66175;SDS011;52977;44.816;20.538;2024-03-29T13:50:36;8.43;;;1.27;;
66175;SDS011;52977;44.816;20.538;2024-03-29T13:53:03;5.75;;;1.52;;
66175;SDS011;52977;44.816;20.538;2024-03-29T13:55:29;4.97;;;1.70;;
66175;SDS011;52977;44.816;20.538;2024-03-29T13:57:56;5.95;;;1.10;;
66175;SDS011;52977;44.816;20.538;2024-03-29T14:00:23;5.10;;;1.00;;
66175;SDS011;52977;44.816;20.538;2024-03-29T14:02:49;4.53;;;1.10;;
66175;SDS011;52977;44.816;20.538;2024-03-29T14:05:16;7.47;;;1.23;;
66175;SDS011;52977;44.816;20.538;2024-03-29T14:07:42;4.38;;;1.15;;
66175;SDS011;52977;44.816;20.538;2024-03-29T14:10:09;5.38;;;1.30;;
66175;SDS011;52977;44.816;20.538;2024-03-29T14:12:35;3.00;;;0.85;;
66175;SDS011;52977;44.816;20.538;2024-03-29T14:15:02;5.22;;;1.10;;
66175;SDS011;52977;44.816;20.538;2024-03-29T14:17:29;4.80;;;1.73;;
66175;SDS011;52977;44.816;20.538;2024-03-29T14:19:55;9.60;;;2.00;;
66175;SDS011;52977;44.816;20.538;2024-03-29T14:22:21;8.55;;;1.25;;
66175;SDS011;52977;44.816;20.538;2024-03-29T14:24:48;5.20;;;1.20;;
66175;SDS011;52977;44.816;20.538;2024-03-29T14:27:15;6.13;;;1.25;;
66175;SDS011;52977;44.816;20.538;2024-03-29T14:29:41;5.85;;;1.30;;
66175;SDS011;52977;44.816;20.538;2024-03-29T14:32:10;13.88;;;5.07;;
66175;SDS011;52977;44.816;20.538;2024-03-29T14:34:37;7.00;;;1.33;;
66175;SDS011;52977;44.816;20.538;2024-03-29T14:37:10;3.28;;;1.08;;
66175;SDS011;52977;44.816;20.538;2024-03-29T14:39:39;4.78;;;1.70;;